EST,Max TemperatureF,Mean TemperatureF,Min TemperatureF,Max Dew PointF,MeanDew PointF,Min DewpointF,Max Humidity, Mean Humidity, Min Humidity, Max Sea Level PressureIn, Mean Sea Level PressureIn, Min Sea Level PressureIn, Max VisibilityMiles, Mean VisibilityMiles, Min VisibilityMiles, Max Wind SpeedMPH, Mean Wind SpeedMPH, Max Gust SpeedMPH,PrecipitationIn, CloudCover, Events, WindDirDegrees
2014-1-1,30,22,14,13,6,-1,62,51,40,30.44,30.38,30.32,,,,22,10,26,0.03,,,10
2014-1-2,24,20,17,8,6,2,57,52,44,30.35,30.26,30.19,,,,22,19,31,0.01,,,23
2014-1-3,32,21,10,4,-1,-5,59,37,22,30.41,30.29,30.07,,,,12,7,23,0.02,,,225
2014-1-4,33,30,26,5,3,2,35,32,29,30.02,29.90,29.79,,,,13,9,24,0.06,,,202
2014-1-5,,,,,,,,,,30.05,29.89,29.54,,,,28,12,33,0.30,,,12
2014-1-6,,,,,,,,,,29.88,29.69,29.51,,,,22,14,34,0.08,,,285
2014-1-7,,,,,,,,,,30.19,30.01,29.89,,,,15,11,31,0.00,,,238
2014-1-8,,,,,,,,,,30.44,30.31,30.19,,,,9,6,16,0.00,,,238
2014-1-9,,,,,,,,,,30.57,30.45,30.27,,,,8,6,,0.02,,,209
2014-1-10,,,,,,,,,,30.24,30.02,29.65,,,,10,5,20,0.14,,,166
2014-1-11,,,,,,,,,,29.58,29.38,29.21,,,,14,8,24,0.34,,,239
2014-1-12,,,,,,,,,,29.81,29.70,29.53,,,,14,9,23,0.00,,,226
2014-1-13,,,,,,,,,,29.67,29.56,29.48,,,,9,6,,0.01,,,202
2014-1-14,33,33,30,30,28,23,89,83,72,29.75,29.67,29.59,,,,10,5,23,0.00,,,206
2014-1-15,30,24,19,21,14,10,85,67,58,29.97,29.82,29.61,,,,15,9,24,0.01,,,250
2014-1-16,26,22,19,23,16,10,88,78,65,29.91,29.75,29.65,,,,12,7,20,0.06,,,175
2014-1-17,28,24,19,26,19,13,89,79,66,29.87,29.73,29.62,,,,15,8,23,0.02,,,231
2014-1-18,23,20,17,16,14,12,85,78,72,29.91,29.87,29.79,,,,13,7,20,0.00,,,236
2014-1-19,37,26,15,23,17,10,81,72,53,29.77,29.54,29.44,,,,17,10,33,0.00,,,233
2014-1-20,16,14,12,4,1,-5,67,56,46,30.06,29.80,29.48,,,,14,10,22,0.05,,,334
2014-1-21,21,16,12,7,2,-1,77,54,38,30.24,30.15,30.04,,,,15,8,23,0.02,,,331
2014-1-22,,,,,,,,,,30.13,30.00,29.92,,,,9,5,,0.01,,,213
2014-1-23,,,,,,,,,,30.40,30.22,29.94,,,,18,5,23,0.07,,,279
2014-1-24,,,,,,,,,,30.34,29.87,29.35,,,,18,9,37,0.03,,,218
2014-1-25,,,,,,,,,,29.66,29.38,29.17,,,,18,12,32,0.04,,,284
2014-1-26,,,,,,,,,,29.67,29.49,29.33,,,,12,6,24,0.05,,,213
2014-1-27,,,,,,,,,,30.15,29.85,29.36,,,,20,12,31,0.02,,,282
2014-1-28,,,,,,,,,,30.19,30.12,30.01,,,,16,11,28,0.00,,,238
2014-1-29,14,14,14,4,2,0,64,59,54,30.06,29.97,29.91,,,,15,11,26,0.00,,,237
2014-1-30,27,20,12,22,8,1,81,62,50,30.03,29.86,29.70,,,,14,9,30,0.03,,,197
2014-1-31,30,24,18,25,16,11,85,73,63,30.15,30.03,29.77,,,,10,6,17,0.01,,,249